sensor_id;sensor_type;location;lat;lon;timestamp;P1;durP1;ratioP1;P2;durP2;ratioP2
15516;SDS011;7860;52.030;5.572;2023-05-17T00:03:06;18.94;;;5.49;;
15516;SDS011;7860;52.030;5.572;2023-05-17T00:03:06;13.51;;;4.96;;
15516;SDS011;7860;52.030;5.572;2023-05-17T00:03:48;21.06;;;5.56;;
15516;SDS011;7860;52.030;5.572;2023-05-17T00:04:48;13.57;;;4.65;;
15516;SDS011;7860;52.030;5.572;2023-05-17T00:05:49;17.32;;;5.36;;
15516;SDS011;7860;52.030;5.572;2023-05-17T00:06:49;15.05;;;5.30;;
15516;SDS011;7860;52.030;5.572;2023-05-17T00:07:49;17.33;;;5.12;;
15516;SDS011;7860;52.030;5.572;2023-05-17T00:08:49;18.27;;;4.96;;
15516;SDS011;7860;52.030;5.572;2023-05-17T00:09:50;17.10;;;5.42;;
15516;SDS011;7860;52.030;5.572;2023-05-17T00:10:50;16.88;;;5.02;;
15516;SDS011;7860;52.030;5.572;2023-05-17T00:11:50;15.29;;;5.45;;
15516;SDS011;7860;52.030;5.572;2023-05-17T00:12:51;15.30;;;4.94;;
15516;SDS011;7860;52.030;5.572;2023-05-17T00:13:51;16.74;;;5.34;;
15516;SDS011;7860;52.030;5.572;2023-05-17T00:14:51;18.12;;;5.67;;
15516;SDS011;7860;52.030;5.572;2023-05-17T00:15:52;15.55;;;4.79;;
15516;SDS011;7860;52.030;5.572;2023-05-17T00:16:52;13.80;;;5.11;;
15516;SDS011;7860;52.030;5.572;2023-05-17T00:17:52;18.84;;;5.80;;
15516;SDS011;7860;52.030;5.572;2023-05-17T00:18:53;17.20;;;5.41;;
15516;SDS011;7860;52.030;5.572;2023-05-17T00:19:53;17.45;;;5.59;;
15516;SDS011;7860;52.030;5.572;2023-05-17T00:20:53;17.85;;;5.65;;
15516;SDS011;7860;52.030;5.572;2023-05-17T00:21:53;20.14;;;5.55;;
15516;SDS011;7860;52.030;5.572;2023-05-17T00:22:54;16.74;;;5.30;;
15516;SDS011;7860;52.030;5.572;2023-05-17T00:23:54;16.50;;;5.59;;
15516;SDS011;7860;52.030;5.572;2023-05-17T00:24:54;16.36;;;5.46;;
15516;SDS011;7860;52.030;5.572;2023-05-17T00:25:54;18.18;;;5.50;;
15516;SDS011;7860;52.030;5.572;2023-05-17T00:26:54;18.41;;;5.83;;
15516;SDS011;7860;52.030;5.572;2023-05-17T00:27:55;15.46;;;5.28;;
15516;SDS011;7860;52.030;5.572;2023-05-17T00:28:55;20.69;;;5.89;;
15516;SDS011;7860;52.030;5.572;2023-05-17T00:29:55;14.80;;;5.07;;
15516;SDS011;7860;52.030;5.572;2023-05-17T00:30:55;18.91;;;5.55;;
15516;SDS011;7860;52.030;5.572;2023-05-17T00:31:55;17.51;;;5.80;;
15516;SDS011;7860;52.030;5.572;2023-05-17T00:32:56;17.73;;;6.01;;
15516;SDS011;7860;52.030;5.572;2023-05-17T00:33:56;17.47;;;6.35;;
15516;SDS011;7860;52.030;5.572;2023-05-17T00:34:56;18.35;;;6.10;;
15516;SDS011;7860;52.030;5.572;2023-05-17T00:35:56;19.35;;;5.97;;
15516;SDS011;7860;52.030;5.572;2023-05-17T00:36:56;17.80;;;5.70;;
15516;SDS011;7860;52.030;5.572;2023-05-17T00:37:57;23.57;;;6.47;;
15516;SDS011;7860;52.030;5.572;2023-05-17T00:38:57;19.58;;;6.08;;
15516;SDS011;7860;52.030;5.572;2023-05-17T00:39:57;20.56;;;6.43;;
15516;SDS011;7860;52.030;5.572;2023-05-17T00:40:57;18.16;;;6.19;;
15516;SDS011;7860;52.030;5.572;2023-05-17T00:41:57;20.55;;;6.26;;
15516;SDS011;7860;52.030;5.572;2023-05-17T00:42:58;17.66;;;6.08;;
15516;SDS011;7860;52.030;5.572;2023-05-17T00:43:58;18.37;;;6.16;;
15516;SDS011;7860;52.030;5.572;2023-05-17T00:44:58;16.68;;;5.41;;
15516;SDS011;7860;52.030;5.572;2023-05-17T00:45:58;19.57;;;5.68;;
15516;SDS011;7860;52.030;5.572;2023-05-17T00:46:58;17.88;;;6.22;;
15516;SDS011;7860;52.030;5.572;2023-05-17T00:47:59;16.63;;;5.49;;
15516;SDS011;7860;52.030;5.572;2023-05-17T00:48:59;18.99;;;6.06;;
15516;SDS011;7860;52.030;5.572;2023-05-17T00:50:00;16.13;;;5.58;;
15516;SDS011;7860;52.030;5.572;2023-05-17T00:51:00;18.14;;;6.20;;
15516;SDS011;7860;52.030;5.572;2023-05-17T00:52:00;18.71;;;6.02;;
15516;SDS011;7860;52.030;5.572;2023-05-17T00:53:00;17.78;;;5.99;;
15516;SDS011;7860;52.030;5.572;2023-05-17T00:54:01;18.66;;;6.00;;
15516;SDS011;7860;52.030;5.572;2023-05-17T00:55:01;17.22;;;5.89;;
15516;SDS011;7860;52.030;5.572;2023-05-17T00:56:01;15.82;;;6.02;;
15516;SDS011;7860;52.030;5.572;2023-05-17T00:57:01;21.65;;;6.72;;
15516;SDS011;7860;52.030;5.572;2023-05-17T00:58:02;16.72;;;6.01;;
15516;SDS011;7860;52.030;5.572;2023-05-17T00:59:02;22.63;;;6.13;;
15516;SDS011;7860;52.030;5.572;2023-05-17T01:00:03;19.77;;;6.25;;
15516;SDS011;7860;52.030;5.572;2023-05-17T01:01:04;18.46;;;6.10;;
15516;SDS011;7860;52.030;5.572;2023-05-17T01:02:04;18.80;;;6.20;;
15516;SDS011;7860;52.030;5.572;2023-05-17T01:03:04;20.80;;;6.16;;
15516;SDS011;7860;52.030;5.572;2023-05-17T01:04:04;21.63;;;6.42;;
15516;SDS011;7860;52.030;5.572;2023-05-17T01:05:05;22.80;;;6.56;;
15516;SDS011;7860;52.030;5.572;2023-05-17T01:06:05;22.26;;;7.06;;
15516;SDS011;7860;52.030;5.572;2023-05-17T01:07:06;19.50;;;6.24;;
15516;SDS011;7860;52.030;5.572;2023-05-17T01:08:06;22.12;;;6.80;;
15516;SDS011;7860;52.030;5.572;2023-05-17T01:09:06;21.70;;;6.77;;
15516;SDS011;7860;52.030;5.572;2023-05-17T01:10:07;20.45;;;6.87;;
15516;SDS011;7860;52.030;5.572;2023-05-17T01:11:09;20.71;;;6.47;;
15516;SDS011;7860;52.030;5.572;2023-05-17T01:12:10;22.71;;;7.21;;
15516;SDS011;7860;52.030;5.572;2023-05-17T01:13:08;21.73;;;6.47;;
15516;SDS011;7860;52.030;5.572;2023-05-17T01:14:11;16.76;;;6.01;;
15516;SDS011;7860;52.030;5.572;2023-05-17T01:15:11;18.24;;;6.60;;
15516;SDS011;7860;52.030;5.572;2023-05-17T01:16:09;20.18;;;6.79;;
15516;SDS011;7860;52.030;5.572;2023-05-17T01:17:11;20.88;;;6.20;;
15516;SDS011;7860;52.030;5.572;2023-05-17T01:18:11;20.14;;;6.88;;
15516;SDS011;7860;52.030;5.572;2023-05-17T01:19:12;16.09;;;6.41;;
15516;SDS011;7860;52.030;5.572;2023-05-17T01:20:13;18.77;;;6.19;;
15516;SDS011;7860;52.030;5.572;2023-05-17T01:21:16;18.85;;;6.28;;
15516;SDS011;7860;52.030;5.572;2023-05-17T01:22:14;17.89;;;6.65;;
15516;SDS011;7860;52.030;5.572;2023-05-17T01:23:19;18.75;;;6.17;;
15516;SDS011;7860;52.030;5.572;2023-05-17T01:24:15;19.07;;;6.57;;
15516;SDS011;7860;52.030;5.572;2023-05-17T01:25:18;19.62;;;6.37;;
15516;SDS011;7860;52.030;5.572;2023-05-17T01:26:14;17.65;;;6.18;;
15516;SDS011;7860;52.030;5.572;2023-05-17T01:27:13;18.08;;;6.16;;
15516;SDS011;7860;52.030;5.572;2023-05-17T01:28:13;21.18;;;6.49;;
15516;SDS011;7860;52.030;5.572;2023-05-17T01:29:13;20.35;;;6.71;;
15516;SDS011;7860;52.030;5.572;2023-05-17T01:30:14;20.60;;;6.61;;
15516;SDS011;7860;52.030;5.572;2023-05-17T01:31:14;19.84;;;6.49;;
15516;SDS011;7860;52.030;5.572;2023-05-17T01:32:15;20.90;;;6.75;;
15516;SDS011;7860;52.030;5.572;2023-05-17T01:33:15;19.95;;;6.50;;
15516;SDS011;7860;52.030;5.572;2023-05-17T01:34:23;21.07;;;7.14;;
15516;SDS011;7860;52.030;5.572;2023-05-17T01:35:16;20.84;;;7.06;;
15516;SDS011;7860;52.030;5.572;2023-05-17T01:36:16;20.88;;;6.88;;
15516;SDS011;7860;52.030;5.572;2023-05-17T01:37:16;19.06;;;6.93;;
15516;SDS011;7860;52.030;5.572;2023-05-17T01:38:17;20.73;;;6.66;;
15516;SDS011;7860;52.030;5.572;2023-05-17T01:39:17;19.34;;;7.04;;
15516;SDS011;7860;52.030;5.572;2023-05-17T01:40:18;20.95;;;6.68;;
15516;SDS011;7860;52.030;5.572;2023-05-17T01:41:22;22.48;;;7.24;;
15516;SDS011;7860;52.030;5.572;2023-05-17T01:42:20;17.81;;;6.59;;
15516;SDS011;7860;52.030;5.572;2023-05-17T01:43:20;17.24;;;5.83;;
15516;SDS011;7860;52.030;5.572;2023-05-17T01:44:21;19.26;;;6.72;;
15516;SDS011;7860;52.030;5.572;2023-05-17T01:45:20;19.36;;;6.90;;
15516;SDS011;7860;52.030;5.572;2023-05-17T01:46:23;20.85;;;6.77;;
15516;SDS011;7860;52.030;5.572;2023-05-17T01:47:22;17.08;;;6.04;;
15516;SDS011;7860;52.030;5.572;2023-05-17T01:48:22;19.74;;;6.48;;
15516;SDS011;7860;52.030;5.572;2023-05-17T01:49:22;17.96;;;5.65;;
15516;SDS011;7860;52.030;5.572;2023-05-17T01:50:22;18.17;;;6.22;;
15516;SDS011;7860;52.030;5.572;2023-05-17T01:51:22;16.05;;;6.10;;
15516;SDS011;7860;52.030;5.572;2023-05-17T01:52:24;19.43;;;6.45;;
15516;SDS011;7860;52.030;5.572;2023-05-17T01:53:24;18.37;;;6.35;;
15516;SDS011;7860;52.030;5.572;2023-05-17T01:54:30;17.41;;;6.06;;
15516;SDS011;7860;52.030;5.572;2023-05-17T01:55:25;19.17;;;6.29;;
15516;SDS011;7860;52.030;5.572;2023-05-17T01:56:26;18.66;;;6.06;;
15516;SDS011;7860;52.030;5.572;2023-05-17T01:57:27;15.38;;;5.88;;
15516;SDS011;7860;52.030;5.572;2023-05-17T01:58:25;18.91;;;6.14;;
15516;SDS011;7860;52.030;5.572;2023-05-17T01:59:26;19.16;;;6.15;;
15516;SDS011;7860;52.030;5.572;2023-05-17T02:00:26;20.24;;;5.99;;
15516;SDS011;7860;52.030;5.572;2023-05-17T02:01:26;19.51;;;6.26;;
15516;SDS011;7860;52.030;5.572;2023-05-17T02:02:26;20.78;;;5.71;;
15516;SDS011;7860;52.030;5.572;2023-05-17T02:03:27;18.74;;;6.24;;
15516;SDS011;7860;52.030;5.572;2023-05-17T02:04:28;22.47;;;6.00;;
15516;SDS011;7860;52.030;5.572;2023-05-17T02:05:27;20.85;;;6.01;;
15516;SDS011;7860;52.030;5.572;2023-05-17T02:06:28;19.39;;;6.27;;
15516;SDS011;7860;52.030;5.572;2023-05-17T02:07:28;17.94;;;6.03;;
15516;SDS011;7860;52.030;5.572;2023-05-17T02:08:28;16.61;;;6.20;;
15516;SDS011;7860;52.030;5.572;2023-05-17T02:09:29;18.61;;;6.71;;
15516;SDS011;7860;52.030;5.572;2023-05-17T02:10:29;21.61;;;6.13;;
15516;SDS011;7860;52.030;5.572;2023-05-17T02:11:30;19.30;;;6.18;;
15516;SDS011;7860;52.030;5.572;2023-05-17T02:12:30;22.05;;;6.08;;
15516;SDS011;7860;52.030;5.572;2023-05-17T02:13:31;18.35;;;6.04;;
15516;SDS011;7860;52.030;5.572;2023-05-17T02:14:31;16.44;;;5.34;;
15516;SDS011;7860;52.030;5.572;2023-05-17T02:15:32;18.54;;;5.83;;
15516;SDS011;7860;52.030;5.572;2023-05-17T02:16:32;17.39;;;5.16;;
15516;SDS011;7860;52.030;5.572;2023-05-17T02:17:33;19.24;;;6.23;;
15516;SDS011;7860;52.030;5.572;2023-05-17T02:18:34;17.60;;;5.53;;
15516;SDS011;7860;52.030;5.572;2023-05-17T02:19:34;20.25;;;5.39;;
15516;SDS011;7860;52.030;5.572;2023-05-17T02:20:34;19.54;;;6.09;;
15516;SDS011;7860;52.030;5.572;2023-05-17T02:21:35;18.68;;;5.58;;
15516;SDS011;7860;52.030;5.572;2023-05-17T02:22:35;17.15;;;5.10;;
15516;SDS011;7860;52.030;5.572;2023-05-17T02:23:36;19.56;;;5.27;;
15516;SDS011;7860;52.030;5.572;2023-05-17T02:24:36;16.10;;;5.17;;
15516;SDS011;7860;52.030;5.572;2023-05-17T02:25:37;16.92;;;5.38;;
15516;SDS011;7860;52.030;5.572;2023-05-17T02:26:37;18.80;;;5.42;;
15516;SDS011;7860;52.030;5.572;2023-05-17T02:27:38;14.46;;;4.64;;
15516;SDS011;7860;52.030;5.572;2023-05-17T02:28:38;17.54;;;5.52;;
15516;SDS011;7860;52.030;5.572;2023-05-17T02:29:39;15.45;;;5.19;;
15516;SDS011;7860;52.030;5.572;2023-05-17T02:30:39;17.63;;;5.45;;
15516;SDS011;7860;52.030;5.572;2023-05-17T02:31:40;17.48;;;5.64;;
15516;SDS011;7860;52.030;5.572;2023-05-17T02:32:40;17.11;;;5.52;;
15516;SDS011;7860;52.030;5.572;2023-05-17T02:33:40;17.87;;;5.61;;
15516;SDS011;7860;52.030;5.572;2023-05-17T02:34:41;17.97;;;5.66;;
15516;SDS011;7860;52.030;5.572;2023-05-17T02:35:41;18.96;;;5.54;;
15516;SDS011;7860;52.030;5.572;2023-05-17T02:36:42;20.93;;;5.85;;
15516;SDS011;7860;52.030;5.572;2023-05-17T02:37:42;17.97;;;5.55;;
15516;SDS011;7860;52.030;5.572;2023-05-17T02:38:43;16.18;;;5.05;;
15516;SDS011;7860;52.030;5.572;2023-05-17T02:39:43;17.93;;;5.29;;
15516;SDS011;7860;52.030;5.572;2023-05-17T02:40:43;16.77;;;5.36;;
15516;SDS011;7860;52.030;5.572;2023-05-17T02:41:44;14.82;;;5.34;;
15516;SDS011;7860;52.030;5.572;2023-05-17T02:42:44;18.90;;;5.50;;
15516;SDS011;7860;52.030;5.572;2023-05-17T02:43:45;18.05;;;5.32;;
15516;SDS011;7860;52.030;5.572;2023-05-17T02:44:45;17.45;;;5.38;;
15516;SDS011;7860;52.030;5.572;2023-05-17T02:45:45;19.04;;;5.40;;
15516;SDS011;7860;52.030;5.572;2023-05-17T02:46:46;17.70;;;5.24;;
15516;SDS011;7860;52.030;5.572;2023-05-17T02:47:46;17.20;;;5.46;;
15516;SDS011;7860;52.030;5.572;2023-05-17T02:48:47;15.50;;;5.58;;
15516;SDS011;7860;52.030;5.572;2023-05-17T02:49:47;16.24;;;5.44;;
15516;SDS011;7860;52.030;5.572;2023-05-17T02:50:48;17.33;;;5.47;;
15516;SDS011;7860;52.030;5.572;2023-05-17T02:51:48;19.36;;;5.64;;
15516;SDS011;7860;52.030;5.572;2023-05-17T02:52:49;16.93;;;5.53;;
15516;SDS011;7860;52.030;5.572;2023-05-17T02:53:49;14.51;;;5.35;;
15516;SDS011;7860;52.030;5.572;2023-05-17T02:54:49;15.55;;;5.10;;
15516;SDS011;7860;52.030;5.572;2023-05-17T02:55:50;14.92;;;5.36;;
15516;SDS011;7860;52.030;5.572;2023-05-17T02:56:50;19.52;;;5.50;;
15516;SDS011;7860;52.030;5.572;2023-05-17T02:57:51;16.04;;;5.82;;
15516;SDS011;7860;52.030;5.572;2023-05-17T02:58:51;17.01;;;5.89;;
15516;SDS011;7860;52.030;5.572;2023-05-17T02:59:52;15.42;;;4.91;;
15516;SDS011;7860;52.030;5.572;2023-05-17T03:00:52;19.68;;;5.44;;
15516;SDS011;7860;52.030;5.572;2023-05-17T03:01:52;18.06;;;5.57;;
15516;SDS011;7860;52.030;5.572;2023-05-17T03:02:53;15.23;;;5.66;;
15516;SDS011;7860;52.030;5.572;2023-05-17T03:03:53;17.39;;;5.95;;
15516;SDS011;7860;52.030;5.572;2023-05-17T03:04:54;14.87;;;5.68;;
15516;SDS011;7860;52.030;5.572;2023-05-17T03:05:54;15.26;;;5.38;;
15516;SDS011;7860;52.030;5.572;2023-05-17T03:06:54;16.56;;;5.82;;
15516;SDS011;7860;52.030;5.572;2023-05-17T03:07:55;15.73;;;5.43;;
15516;SDS011;7860;52.030;5.572;2023-05-17T03:08:55;16.34;;;5.30;;
15516;SDS011;7860;52.030;5.572;2023-05-17T03:09:56;19.46;;;5.58;;
15516;SDS011;7860;52.030;5.572;2023-05-17T03:10:56;16.27;;;5.13;;
15516;SDS011;7860;52.030;5.572;2023-05-17T03:11:57;17.34;;;5.13;;
15516;SDS011;7860;52.030;5.572;2023-05-17T03:12:57;16.30;;;5.29;;
15516;SDS011;7860;52.030;5.572;2023-05-17T03:13:57;16.45;;;4.96;;
15516;SDS011;7860;52.030;5.572;2023-05-17T03:14:58;15.25;;;4.93;;
15516;SDS011;7860;52.030;5.572;2023-05-17T03:15:58;15.80;;;4.84;;
15516;SDS011;7860;52.030;5.572;2023-05-17T03:16:59;18.27;;;5.68;;
15516;SDS011;7860;52.030;5.572;2023-05-17T03:17:59;16.72;;;5.69;;
15516;SDS011;7860;52.030;5.572;2023-05-17T03:19:00;15.61;;;5.07;;
15516;SDS011;7860;52.030;5.572;2023-05-17T03:20:00;17.36;;;5.13;;
15516;SDS011;7860;52.030;5.572;2023-05-17T03:21:00;17.20;;;5.19;;
15516;SDS011;7860;52.030;5.572;2023-05-17T03:22:01;14.09;;;5.05;;
15516;SDS011;7860;52.030;5.572;2023-05-17T03:23:01;17.40;;;5.39;;
15516;SDS011;7860;52.030;5.572;2023-05-17T03:24:01;18.80;;;5.19;;
15516;SDS011;7860;52.030;5.572;2023-05-17T03:25:02;17.86;;;5.86;;
15516;SDS011;7860;52.030;5.572;2023-05-17T03:26:02;18.72;;;6.14;;
15516;SDS011;7860;52.030;5.572;2023-05-17T03:27:02;18.01;;;5.94;;
15516;SDS011;7860;52.030;5.572;2023-05-17T03:28:03;19.14;;;5.56;;
15516;SDS011;7860;52.030;5.572;2023-05-17T03:29:03;18.94;;;5.71;;
15516;SDS011;7860;52.030;5.572;2023-05-17T03:30:04;19.04;;;5.68;;
15516;SDS011;7860;52.030;5.572;2023-05-17T03:31:04;17.09;;;5.15;;
15516;SDS011;7860;52.030;5.572;2023-05-17T03:32:04;17.47;;;5.51;;
15516;SDS011;7860;52.030;5.572;2023-05-17T03:33:04;18.29;;;5.17;;
15516;SDS011;7860;52.030;5.572;2023-05-17T03:34:05;19.74;;;5.93;;
15516;SDS011;7860;52.030;5.572;2023-05-17T03:35:05;18.65;;;5.58;;
15516;SDS011;7860;52.030;5.572;2023-05-17T03:36:05;18.97;;;5.68;;
15516;SDS011;7860;52.030;5.572;2023-05-17T03:37:06;20.38;;;5.27;;
15516;SDS011;7860;52.030;5.572;2023-05-17T03:38:06;16.14;;;5.58;;
15516;SDS011;7860;52.030;5.572;2023-05-17T03:39:06;18.51;;;5.78;;
15516;SDS011;7860;52.030;5.572;2023-05-17T03:40:07;14.82;;;5.56;;
15516;SDS011;7860;52.030;5.572;2023-05-17T03:41:06;14.87;;;5.59;;
15516;SDS011;7860;52.030;5.572;2023-05-17T03:42:07;17.86;;;5.56;;
15516;SDS011;7860;52.030;5.572;2023-05-17T03:43:07;21.19;;;5.85;;
15516;SDS011;7860;52.030;5.572;2023-05-17T03:44:07;17.16;;;5.35;;
15516;SDS011;7860;52.030;5.572;2023-05-17T03:45:09;17.96;;;5.99;;
15516;SDS011;7860;52.030;5.572;2023-05-17T03:46:08;19.11;;;5.65;;
15516;SDS011;7860;52.030;5.572;2023-05-17T03:47:08;16.10;;;5.52;;
15516;SDS011;7860;52.030;5.572;2023-05-17T03:48:09;18.56;;;5.54;;
15516;SDS011;7860;52.030;5.572;2023-05-17T03:49:09;17.73;;;5.81;;
15516;SDS011;7860;52.030;5.572;2023-05-17T03:50:10;16.30;;;5.60;;
15516;SDS011;7860;52.030;5.572;2023-05-17T03:51:10;17.86;;;5.68;;
15516;SDS011;7860;52.030;5.572;2023-05-17T03:52:10;14.36;;;5.21;;
15516;SDS011;7860;52.030;5.572;2023-05-17T03:53:11;16.43;;;5.68;;
15516;SDS011;7860;52.030;5.572;2023-05-17T03:54:11;17.89;;;5.73;;
15516;SDS011;7860;52.030;5.572;2023-05-17T03:55:11;16.38;;;5.47;;
15516;SDS011;7860;52.030;5.572;2023-05-17T03:56:12;18.92;;;5.09;;
15516;SDS011;7860;52.030;5.572;2023-05-17T03:57:12;15.35;;;5.08;;
15516;SDS011;7860;52.030;5.572;2023-05-17T03:58:13;17.97;;;5.56;;
15516;SDS011;7860;52.030;5.572;2023-05-17T03:59:13;17.69;;;5.98;;
15516;SDS011;7860;52.030;5.572;2023-05-17T04:00:14;16.69;;;5.30;;
15516;SDS011;7860;52.030;5.572;2023-05-17T04:01:14;16.79;;;5.00;;
15516;SDS011;7860;52.030;5.572;2023-05-17T04:02:14;15.55;;;5.16;;
15516;SDS011;7860;52.030;5.572;2023-05-17T04:03:14;18.05;;;5.61;;
15516;SDS011;7860;52.030;5.572;2023-05-17T04:04:14;15.36;;;5.41;;
15516;SDS011;7860;52.030;5.572;2023-05-17T04:05:15;15.64;;;5.12;;
15516;SDS011;7860;52.030;5.572;2023-05-17T04:06:15;14.14;;;5.39;;
15516;SDS011;7860;52.030;5.572;2023-05-17T04:07:15;17.47;;;5.38;;
15516;SDS011;7860;52.030;5.572;2023-05-17T04:08:15;16.93;;;5.44;;
15516;SDS011;7860;52.030;5.572;2023-05-17T04:09:16;15.28;;;5.44;;
15516;SDS011;7860;52.030;5.572;2023-05-17T04:10:16;17.21;;;5.66;;
15516;SDS011;7860;52.030;5.572;2023-05-17T04:11:16;18.15;;;5.29;;
15516;SDS011;7860;52.030;5.572;2023-05-17T04:12:17;17.98;;;6.50;;
15516;SDS011;7860;52.030;5.572;2023-05-17T04:13:17;13.81;;;4.91;;
15516;SDS011;7860;52.030;5.572;2023-05-17T04:14:17;17.53;;;5.78;;
15516;SDS011;7860;52.030;5.572;2023-05-17T04:15:18;15.27;;;5.52;;
15516;SDS011;7860;52.030;5.572;2023-05-17T04:16:18;14.75;;;5.24;;
15516;SDS011;7860;52.030;5.572;2023-05-17T04:17:18;17.10;;;6.26;;
15516;SDS011;7860;52.030;5.572;2023-05-17T04:18:18;18.08;;;5.60;;
15516;SDS011;7860;52.030;5.572;2023-05-17T04:19:18;15.03;;;5.21;;
15516;SDS011;7860;52.030;5.572;2023-05-17T04:20:19;16.83;;;5.63;;
15516;SDS011;7860;52.030;5.572;2023-05-17T04:21:19;16.41;;;4.97;;
15516;SDS011;7860;52.030;5.572;2023-05-17T04:22:20;18.28;;;5.52;;
15516;SDS011;7860;52.030;5.572;2023-05-17T04:23:20;21.64;;;5.21;;
15516;SDS011;7860;52.030;5.572;2023-05-17T04:24:20;17.46;;;5.15;;
15516;SDS011;7860;52.030;5.572;2023-05-17T04:25:21;20.16;;;6.19;;
15516;SDS011;7860;52.030;5.572;2023-05-17T04:26:21;14.35;;;5.21;;
15516;SDS011;7860;52.030;5.572;2023-05-17T04:27:22;17.70;;;5.71;;
15516;SDS011;7860;52.030;5.572;2023-05-17T04:28:22;18.55;;;5.91;;
15516;SDS011;7860;52.030;5.572;2023-05-17T04:29:22;18.72;;;5.13;;
15516;SDS011;7860;52.030;5.572;2023-05-17T04:30:22;18.01;;;6.04;;
15516;SDS011;7860;52.030;5.572;2023-05-17T04:31:23;17.35;;;5.66;;
15516;SDS011;7860;52.030;5.572;2023-05-17T04:32:23;17.60;;;5.62;;
15516;SDS011;7860;52.030;5.572;2023-05-17T04:33:23;18.21;;;5.92;;
15516;SDS011;7860;52.030;5.572;2023-05-17T04:34:24;16.17;;;5.56;;
15516;SDS011;7860;52.030;5.572;2023-05-17T04:35:24;20.73;;;5.63;;
15516;SDS011;7860;52.030;5.572;2023-05-17T04:36:25;19.65;;;5.27;;
15516;SDS011;7860;52.030;5.572;2023-05-17T04:37:25;15.01;;;5.47;;
15516;SDS011;7860;52.030;5.572;2023-05-17T04:38:25;14.92;;;5.35;;
15516;SDS011;7860;52.030;5.572;2023-05-17T04:39:26;19.40;;;5.32;;
15516;SDS011;7860;52.030;5.572;2023-05-17T04:40:26;15.13;;;5.26;;
15516;SDS011;7860;52.030;5.572;2023-05-17T04:41:27;15.86;;;5.44;;
15516;SDS011;7860;52.030;5.572;2023-05-17T04:42:27;19.27;;;5.77;;
15516;SDS011;7860;52.030;5.572;2023-05-17T04:43:27;19.35;;;5.52;;
15516;SDS011;7860;52.030;5.572;2023-05-17T04:44:27;19.70;;;5.52;;
15516;SDS011;7860;52.030;5.572;2023-05-17T04:45:28;16.81;;;5.30;;
15516;SDS011;7860;52.030;5.572;2023-05-17T04:46:28;18.66;;;5.50;;
15516;SDS011;7860;52.030;5.572;2023-05-17T04:47:29;20.09;;;6.12;;
15516;SDS011;7860;52.030;5.572;2023-05-17T04:48:30;14.88;;;5.90;;
15516;SDS011;7860;52.030;5.572;2023-05-17T04:49:29;15.71;;;4.87;;
15516;SDS011;7860;52.030;5.572;2023-05-17T04:50:30;20.12;;;6.06;;
15516;SDS011;7860;52.030;5.572;2023-05-17T04:51:30;16.79;;;6.35;;
15516;SDS011;7860;52.030;5.572;2023-05-17T04:52:31;16.36;;;6.05;;
15516;SDS011;7860;52.030;5.572;2023-05-17T04:53:31;16.96;;;4.99;;
15516;SDS011;7860;52.030;5.572;2023-05-17T04:54:32;21.12;;;5.95;;
15516;SDS011;7860;52.030;5.572;2023-05-17T04:55:32;19.91;;;5.66;;
15516;SDS011;7860;52.030;5.572;2023-05-17T04:56:33;15.59;;;5.02;;
15516;SDS011;7860;52.030;5.572;2023-05-17T04:57:32;20.10;;;5.80;;
15516;SDS011;7860;52.030;5.572;2023-05-17T04:58:33;21.28;;;5.77;;
15516;SDS011;7860;52.030;5.572;2023-05-17T04:59:33;20.00;;;5.47;;
15516;SDS011;7860;52.030;5.572;2023-05-17T05:00:34;17.67;;;5.56;;
15516;SDS011;7860;52.030;5.572;2023-05-17T05:01:34;14.93;;;4.75;;
15516;SDS011;7860;52.030;5.572;2023-05-17T05:02:35;15.89;;;5.09;;
15516;SDS011;7860;52.030;5.572;2023-05-17T05:03:35;16.56;;;5.30;;
15516;SDS011;7860;52.030;5.572;2023-05-17T05:04:35;15.17;;;4.51;;
15516;SDS011;7860;52.030;5.572;2023-05-17T05:05:35;16.53;;;4.67;;
15516;SDS011;7860;52.030;5.572;2023-05-17T05:06:36;16.51;;;5.07;;
15516;SDS011;7860;52.030;5.572;2023-05-17T05:07:36;15.78;;;4.89;;
15516;SDS011;7860;52.030;5.572;2023-05-17T05:08:37;14.92;;;4.94;;
15516;SDS011;7860;52.030;5.572;2023-05-17T05:09:37;13.11;;;4.73;;
15516;SDS011;7860;52.030;5.572;2023-05-17T05:10:38;15.07;;;5.03;;
15516;SDS011;7860;52.030;5.572;2023-05-17T05:11:38;15.42;;;4.66;;
15516;SDS011;7860;52.030;5.572;2023-05-17T05:12:38;17.62;;;5.46;;
15516;SDS011;7860;52.030;5.572;2023-05-17T05:13:39;12.36;;;4.67;;
15516;SDS011;7860;52.030;5.572;2023-05-17T05:14:39;11.54;;;4.27;;
15516;SDS011;7860;52.030;5.572;2023-05-17T05:15:39;15.80;;;4.76;;
15516;SDS011;7860;52.030;5.572;2023-05-17T05:16:40;15.63;;;4.61;;
15516;SDS011;7860;52.030;5.572;2023-05-17T05:17:40;17.64;;;5.25;;
15516;SDS011;7860;52.030;5.572;2023-05-17T05:18:40;16.18;;;4.95;;
15516;SDS011;7860;52.030;5.572;2023-05-17T05:19:40;17.01;;;4.51;;
15516;SDS011;7860;52.030;5.572;2023-05-17T05:20:41;17.63;;;4.76;;
15516;SDS011;7860;52.030;5.572;2023-05-17T05:21:43;16.79;;;4.84;;
15516;SDS011;7860;52.030;5.572;2023-05-17T05:22:40;17.18;;;4.89;;
15516;SDS011;7860;52.030;5.572;2023-05-17T05:23:41;19.16;;;5.33;;
15516;SDS011;7860;52.030;5.572;2023-05-17T05:24:41;16.26;;;4.64;;
15516;SDS011;7860;52.030;5.572;2023-05-17T05:25:42;17.31;;;4.57;;
15516;SDS011;7860;52.030;5.572;2023-05-17T05:26:42;14.93;;;4.36;;
15516;SDS011;7860;52.030;5.572;2023-05-17T05:27:42;12.67;;;4.07;;
15516;SDS011;7860;52.030;5.572;2023-05-17T05:28:43;17.33;;;4.83;;
15516;SDS011;7860;52.030;5.572;2023-05-17T05:29:43;16.68;;;4.43;;
15516;SDS011;7860;52.030;5.572;2023-05-17T05:30:44;12.79;;;3.74;;
15516;SDS011;7860;52.030;5.572;2023-05-17T05:31:44;15.89;;;4.08;;
15516;SDS011;7860;52.030;5.572;2023-05-17T05:32:44;15.89;;;4.08;;
15516;SDS011;7860;52.030;5.572;2023-05-17T05:33:44;12.83;;;3.86;;
15516;SDS011;7860;52.030;5.572;2023-05-17T05:34:45;15.20;;;4.01;;
15516;SDS011;7860;52.030;5.572;2023-05-17T05:35:45;12.20;;;3.90;;
15516;SDS011;7860;52.030;5.572;2023-05-17T05:36:45;16.04;;;4.65;;
15516;SDS011;7860;52.030;5.572;2023-05-17T05:37:46;17.00;;;4.75;;
15516;SDS011;7860;52.030;5.572;2023-05-17T05:38:46;16.46;;;4.02;;
15516;SDS011;7860;52.030;5.572;2023-05-17T05:39:46;14.84;;;3.95;;
15516;SDS011;7860;52.030;5.572;2023-05-17T05:40:46;14.58;;;4.03;;
15516;SDS011;7860;52.030;5.572;2023-05-17T05:41:47;16.29;;;4.12;;
15516;SDS011;7860;52.030;5.572;2023-05-17T05:42:47;18.26;;;5.14;;
15516;SDS011;7860;52.030;5.572;2023-05-17T05:43:48;16.96;;;4.06;;
15516;SDS011;7860;52.030;5.572;2023-05-17T05:44:48;17.01;;;4.16;;
15516;SDS011;7860;52.030;5.572;2023-05-17T05:45:48;14.09;;;3.77;;
15516;SDS011;7860;52.030;5.572;2023-05-17T05:46:49;15.19;;;3.62;;
15516;SDS011;7860;52.030;5.572;2023-05-17T05:47:49;13.99;;;4.12;;
15516;SDS011;7860;52.030;5.572;2023-05-17T05:48:49;11.88;;;3.47;;
15516;SDS011;7860;52.030;5.572;2023-05-17T05:49:49;14.28;;;3.88;;
15516;SDS011;7860;52.030;5.572;2023-05-17T05:50:50;17.74;;;4.47;;
15516;SDS011;7860;52.030;5.572;2023-05-17T05:51:50;12.96;;;3.33;;
15516;SDS011;7860;52.030;5.572;2023-05-17T05:52:51;14.03;;;4.03;;
15516;SDS011;7860;52.030;5.572;2023-05-17T05:53:51;12.97;;;3.58;;
15516;SDS011;7860;52.030;5.572;2023-05-17T05:54:51;14.10;;;3.72;;
15516;SDS011;7860;52.030;5.572;2023-05-17T05:55:51;13.89;;;3.41;;
15516;SDS011;7860;52.030;5.572;2023-05-17T05:56:52;18.86;;;3.54;;
15516;SDS011;7860;52.030;5.572;2023-05-17T05:57:52;15.17;;;3.60;;
15516;SDS011;7860;52.030;5.572;2023-05-17T05:58:53;16.12;;;4.07;;
15516;SDS011;7860;52.030;5.572;2023-05-17T05:59:52;16.14;;;3.70;;
15516;SDS011;7860;52.030;5.572;2023-05-17T06:00:53;13.71;;;3.12;;
15516;SDS011;7860;52.030;5.572;2023-05-17T06:01:53;14.72;;;3.78;;
15516;SDS011;7860;52.030;5.572;2023-05-17T06:02:53;14.67;;;3.53;;
15516;SDS011;7860;52.030;5.572;2023-05-17T06:03:53;12.69;;;3.39;;
15516;SDS011;7860;52.030;5.572;2023-05-17T06:04:54;15.42;;;3.19;;